Broomfield, CO (80021)

3:35 PM MST on March 06, 2015 (GMT -0700)
Westcliff - 97th | Change Station
CLOSE
Current Station
Personal Weather Station
Location: Westminster, CO
Elevation: 5418 ft
Nearby Weather Stations

Elev 5418 ft 39.88 °N, 105.07 °W | Updated 22 seconds ago

Clear
Clear
51.4 °F
Feels Like 51.4 °F
N
2.0
Wind Variable Wind from West
Gusts 3.0 mph

Today
High -- | Low -- °F
--% Chance of Precip.
Yesterday
High -- | Low -- °F
Precip. -- in
6:26 AM 5:57 PM
Full, 99% visible
Pressure 30.23 in
Visibility 30.0 miles
Clouds Clear
Dew Point 16 °F
Humidity 24%
Rainfall in
Snow Depth Not available.
UV 4 out of 12
Pollen 6.30 out of 12
Air Quality Not available.
Flu Activity Not available.
METAR KBJC 062147Z 34005KT 30SM SKC 09/M06 A3023

More Conditions Fewer Conditions

Pressure 30.23 in
Visibility 30.0 miles
Clouds Clear
Dew Point 16 °F
Humidity 24%
Rainfall in
Snow Depth Not available.
UV 4 out of 12
Pollen 6.30 out of 12
Air Quality Not available.
Flu Activity Not available.
METAR KBJC 062147Z 34005KT 30SM SKC 09/M06 A3023

More Conditions Fewer Conditions

10-Day Weather Forecast

Almanac

Astronomy

Mar. 06, 2015 Rise Set
Actual Time
Civil Twilight
Nautical Twilight
Astronomical Twilight
Moon
Length of Visible Light
Length of Day
Tomorrow will be .
, % of the Moon is Illuminated

Today's Extremes

State Highs State Lows

Community

WunderPhotos

Upload Photos

1,803,420 photos uploaded!

WunderBlogs® & News

Nearby

Air Quality

  Air Quality AQ Index Pollutant
Not available.

Snow Depth

Station Depth Elevation

Earthquake Activity

City Distance Mag. Time & Date
Minimum magnitude displayed is 2.5.

Coastal Water Temperatures

Place Temperature

Nearby Weather Stations